sensor_id;sensor_type;location;lat;lon;timestamp;P1;durP1;ratioP1;P2;durP2;ratioP2
77748;SDS011;66938;52.084;5.228;2023-05-13T00:00:57;8.81;;;8.0;;
77748;SDS011;66938;52.084;5.228;2023-05-13T00:02:33;9.4;;;8.5;;
77748;SDS011;66938;52.084;5.228;2023-05-13T00:04:10;9.0;;;8.1;;
77748;SDS011;66938;52.084;5.228;2023-05-13T00:05:46;8.5;;;7.7;;
77748;SDS011;66938;52.084;5.228;2023-05-13T00:08:58;8.5;;;7.8;;
77748;SDS011;66938;52.084;5.228;2023-05-13T00:10:35;8.4;;;7.6;;
77748;SDS011;66938;52.084;5.228;2023-05-13T00:12:11;8.0;;;7.3;;
77748;SDS011;66938;52.084;5.228;2023-05-13T00:15:24;8.31;;;7.5;;
77748;SDS011;66938;52.084;5.228;2023-05-13T00:17:00;7.7;;;7.0;;
77748;SDS011;66938;52.084;5.228;2023-05-13T00:18:36;8.31;;;7.5;;
77748;SDS011;66938;52.084;5.228;2023-05-13T00:21:49;7.8;;;7.0;;
77748;SDS011;66938;52.084;5.228;2023-05-13T00:23:25;8.1;;;7.4;;
77748;SDS011;66938;52.084;5.228;2023-05-13T00:25:02;7.9;;;7.1;;
77748;SDS011;66938;52.084;5.228;2023-05-13T00:26:38;7.9;;;7.1;;
77748;SDS011;66938;52.084;5.228;2023-05-13T00:29:50;7.9;;;7.1;;
77748;SDS011;66938;52.084;5.228;2023-05-13T00:31:26;8.2;;;7.4;;
77748;SDS011;66938;52.084;5.228;2023-05-13T00:33:03;8.2;;;7.4;;
77748;SDS011;66938;52.084;5.228;2023-05-13T00:36:15;8.0;;;6.9;;
77748;SDS011;66938;52.084;5.228;2023-05-13T00:37:51;8.31;;;6.9;;
77748;SDS011;66938;52.084;5.228;2023-05-13T00:39:27;7.7;;;7.0;;
77748;SDS011;66938;52.084;5.228;2023-05-13T00:42:40;7.7;;;6.9;;
77748;SDS011;66938;52.084;5.228;2023-05-13T00:44:16;7.7;;;7.0;;
77748;SDS011;66938;52.084;5.228;2023-05-13T00:45:52;8.31;;;7.5;;
77748;SDS011;66938;52.084;5.228;2023-05-13T00:49:05;7.8;;;7.1;;
77748;SDS011;66938;52.084;5.228;2023-05-13T00:50:41;7.7;;;6.9;;
77748;SDS011;66938;52.084;5.228;2023-05-13T00:52:17;8.2;;;7.2;;
77748;SDS011;66938;52.084;5.228;2023-05-13T00:57:08;8.0;;;7.2;;
77748;SDS011;66938;52.084;5.228;2023-05-13T00:58:45;9.1;;;7.5;;
77748;SDS011;66938;52.084;5.228;2023-05-13T01:00:21;8.81;;;7.9;;
77748;SDS011;66938;52.084;5.228;2023-05-13T01:03:50;8.4;;;7.7;;
77748;SDS011;66938;52.084;5.228;2023-05-13T01:05:40;8.31;;;7.5;;
77748;SDS011;66938;52.084;5.228;2023-05-13T01:07:34;8.9;;;7.7;;
77748;SDS011;66938;52.084;5.228;2023-05-13T01:09:23;8.6;;;7.7;;
77748;SDS011;66938;52.084;5.228;2023-05-13T01:11:20;8.1;;;7.4;;
77748;SDS011;66938;52.084;5.228;2023-05-13T01:13:03;8.71;;;7.9;;
77748;SDS011;66938;52.084;5.228;2023-05-13T01:14:47;8.0;;;7.3;;
77748;SDS011;66938;52.084;5.228;2023-05-13T01:18:27;9.0;;;8.1;;
77748;SDS011;66938;52.084;5.228;2023-05-13T01:20:08;8.5;;;7.6;;
77748;SDS011;66938;52.084;5.228;2023-05-13T01:21:50;8.5;;;7.7;;
77748;SDS011;66938;52.084;5.228;2023-05-13T01:23:27;8.71;;;7.7;;
77748;SDS011;66938;52.084;5.228;2023-05-13T01:26:39;8.5;;;7.6;;
77748;SDS011;66938;52.084;5.228;2023-05-13T01:28:15;8.1;;;7.4;;
77748;SDS011;66938;52.084;5.228;2023-05-13T01:29:51;8.2;;;7.5;;
77748;SDS011;66938;52.084;5.228;2023-05-13T01:31:30;8.31;;;7.5;;
77748;SDS011;66938;52.084;5.228;2023-05-13T01:34:43;8.0;;;7.3;;
77748;SDS011;66938;52.084;5.228;2023-05-13T01:36:21;8.6;;;7.7;;
77748;SDS011;66938;52.084;5.228;2023-05-13T01:37:57;12.0;;;8.2;;
77748;SDS011;66938;52.084;5.228;2023-05-13T01:41:13;8.71;;;7.8;;
77748;SDS011;66938;52.084;5.228;2023-05-13T01:42:49;8.0;;;7.3;;
77748;SDS011;66938;52.084;5.228;2023-05-13T01:44:26;8.9;;;7.6;;
77748;SDS011;66938;52.084;5.228;2023-05-13T01:47:38;8.31;;;7.5;;
77748;SDS011;66938;52.084;5.228;2023-05-13T01:49:14;8.31;;;7.5;;
77748;SDS011;66938;52.084;5.228;2023-05-13T01:50:50;9.0;;;7.5;;
77748;SDS011;66938;52.084;5.228;2023-05-13T01:52:27;8.6;;;7.8;;
77748;SDS011;66938;52.084;5.228;2023-05-13T01:55:40;7.8;;;7.0;;
77748;SDS011;66938;52.084;5.228;2023-05-13T01:57:16;8.6;;;7.5;;
77748;SDS011;66938;52.084;5.228;2023-05-13T01:58:52;8.4;;;7.6;;
77748;SDS011;66938;52.084;5.228;2023-05-13T02:02:05;8.5;;;7.7;;
77748;SDS011;66938;52.084;5.228;2023-05-13T02:03:41;8.4;;;7.4;;
77748;SDS011;66938;52.084;5.228;2023-05-13T02:05:18;8.81;;;7.2;;
77748;SDS011;66938;52.084;5.228;2023-05-13T02:08:30;8.9;;;7.8;;
77748;SDS011;66938;52.084;5.228;2023-05-13T02:10:06;8.1;;;7.4;;
77748;SDS011;66938;52.084;5.228;2023-05-13T02:11:43;7.7;;;7.0;;
77748;SDS011;66938;52.084;5.228;2023-05-13T02:13:20;8.9;;;7.7;;
77748;SDS011;66938;52.084;5.228;2023-05-13T02:16:33;8.9;;;7.9;;
77748;SDS011;66938;52.084;5.228;2023-05-13T02:18:09;8.2;;;7.4;;
77748;SDS011;66938;52.084;5.228;2023-05-13T02:19:45;8.1;;;7.3;;
77748;SDS011;66938;52.084;5.228;2023-05-13T02:22:57;8.6;;;7.8;;
77748;SDS011;66938;52.084;5.228;2023-05-13T02:24:34;8.2;;;7.4;;
77748;SDS011;66938;52.084;5.228;2023-05-13T02:26:10;8.1;;;7.3;;
77748;SDS011;66938;52.084;5.228;2023-05-13T02:29:22;9.31;;;7.8;;
77748;SDS011;66938;52.084;5.228;2023-05-13T02:30:58;8.81;;;7.9;;
77748;SDS011;66938;52.084;5.228;2023-05-13T02:32:34;9.5;;;8.1;;
77748;SDS011;66938;52.084;5.228;2023-05-13T02:35:47;8.6;;;7.7;;
77748;SDS011;66938;52.084;5.228;2023-05-13T02:37:23;9.1;;;8.1;;
77748;SDS011;66938;52.084;5.228;2023-05-13T02:38:59;9.21;;;7.5;;
77748;SDS011;66938;52.084;5.228;2023-05-13T02:40:35;8.4;;;7.6;;
77748;SDS011;66938;52.084;5.228;2023-05-13T02:43:47;9.5;;;8.6;;
77748;SDS011;66938;52.084;5.228;2023-05-13T02:45:23;9.31;;;8.4;;
77748;SDS011;66938;52.084;5.228;2023-05-13T02:47:00;9.0;;;8.1;;
77748;SDS011;66938;52.084;5.228;2023-05-13T02:50:12;9.6;;;8.4;;
77748;SDS011;66938;52.084;5.228;2023-05-13T02:51:48;9.1;;;8.31;;
77748;SDS011;66938;52.084;5.228;2023-05-13T02:53:24;8.9;;;8.1;;
77748;SDS011;66938;52.084;5.228;2023-05-13T02:56:36;8.71;;;7.8;;
77748;SDS011;66938;52.084;5.228;2023-05-13T02:58:13;9.6;;;8.6;;
77748;SDS011;66938;52.084;5.228;2023-05-13T02:59:50;9.31;;;8.4;;
77748;SDS011;66938;52.084;5.228;2023-05-13T03:01:26;11.5;;;9.1;;
77748;SDS011;66938;52.084;5.228;2023-05-13T03:04:38;9.31;;;8.5;;
77748;SDS011;66938;52.084;5.228;2023-05-13T03:06:14;9.4;;;8.4;;
77748;SDS011;66938;52.084;5.228;2023-05-13T03:07:50;9.4;;;8.5;;
77748;SDS011;66938;52.084;5.228;2023-05-13T03:11:03;11.3;;;8.9;;
77748;SDS011;66938;52.084;5.228;2023-05-13T03:12:39;9.5;;;8.6;;
77748;SDS011;66938;52.084;5.228;2023-05-13T03:14:15;9.9;;;8.9;;
77748;SDS011;66938;52.084;5.228;2023-05-13T03:17:27;10.6;;;9.71;;
77748;SDS011;66938;52.084;5.228;2023-05-13T03:19:04;9.81;;;9.0;;
77748;SDS011;66938;52.084;5.228;2023-05-13T03:20:40;10.4;;;9.31;;
77748;SDS011;66938;52.084;5.228;2023-05-13T03:23:52;10.8;;;9.71;;
77748;SDS011;66938;52.084;5.228;2023-05-13T03:25:29;10.6;;;9.6;;
77748;SDS011;66938;52.084;5.228;2023-05-13T03:27:05;11.7;;;9.81;;
77748;SDS011;66938;52.084;5.228;2023-05-13T03:28:41;11.2;;;10.21;;
77748;SDS011;66938;52.084;5.228;2023-05-13T03:31:54;11.5;;;10.1;;
77748;SDS011;66938;52.084;5.228;2023-05-13T03:33:30;11.2;;;10.1;;
77748;SDS011;66938;52.084;5.228;2023-05-13T03:35:06;12.6;;;11.3;;
77748;SDS011;66938;52.084;5.228;2023-05-13T03:38:18;12.4;;;11.3;;
77748;SDS011;66938;52.084;5.228;2023-05-13T03:39:55;12.3;;;11.2;;
77748;SDS011;66938;52.084;5.228;2023-05-13T03:41:31;12.5;;;11.2;;
77748;SDS011;66938;52.084;5.228;2023-05-13T03:44:43;12.7;;;11.6;;
77748;SDS011;66938;52.084;5.228;2023-05-13T03:46:19;12.4;;;11.3;;
77748;SDS011;66938;52.084;5.228;2023-05-13T03:47:55;12.5;;;11.3;;
77748;SDS011;66938;52.084;5.228;2023-05-13T03:49:31;12.3;;;11.2;;
77748;SDS011;66938;52.084;5.228;2023-05-13T03:52:44;12.6;;;11.4;;
77748;SDS011;66938;52.084;5.228;2023-05-13T03:54:21;12.8;;;11.7;;
77748;SDS011;66938;52.084;5.228;2023-05-13T03:55:57;13.4;;;12.2;;
77748;SDS011;66938;52.084;5.228;2023-05-13T03:59:09;13.5;;;12.2;;
77748;SDS011;66938;52.084;5.228;2023-05-13T04:00:46;13.2;;;12.1;;
77748;SDS011;66938;52.084;5.228;2023-05-13T04:02:22;14.1;;;12.7;;
77748;SDS011;66938;52.084;5.228;2023-05-13T04:05:34;13.4;;;12.3;;
77748;SDS011;66938;52.084;5.228;2023-05-13T04:07:10;14.0;;;12.8;;
77748;SDS011;66938;52.084;5.228;2023-05-13T04:08:46;13.3;;;12.1;;
77748;SDS011;66938;52.084;5.228;2023-05-13T04:11:59;14.5;;;13.0;;
77748;SDS011;66938;52.084;5.228;2023-05-13T04:13:35;14.4;;;13.1;;
77748;SDS011;66938;52.084;5.228;2023-05-13T04:15:11;14.2;;;12.8;;
77748;SDS011;66938;52.084;5.228;2023-05-13T04:16:47;14.0;;;12.7;;
77748;SDS011;66938;52.084;5.228;2023-05-13T04:19:59;14.6;;;13.2;;
77748;SDS011;66938;52.084;5.228;2023-05-13T04:21:36;14.3;;;13.0;;
77748;SDS011;66938;52.084;5.228;2023-05-13T04:23:12;13.7;;;12.5;;
77748;SDS011;66938;52.084;5.228;2023-05-13T04:26:24;14.3;;;13.0;;
77748;SDS011;66938;52.084;5.228;2023-05-13T04:28:00;15.0;;;13.5;;
77748;SDS011;66938;52.084;5.228;2023-05-13T04:29:36;14.1;;;12.9;;
77748;SDS011;66938;52.084;5.228;2023-05-13T04:32:49;14.1;;;12.9;;
77748;SDS011;66938;52.084;5.228;2023-05-13T04:34:25;14.1;;;12.8;;
77748;SDS011;66938;52.084;5.228;2023-05-13T04:36:01;15.3;;;13.9;;
77748;SDS011;66938;52.084;5.228;2023-05-13T04:37:37;15.0;;;13.6;;
77748;SDS011;66938;52.084;5.228;2023-05-13T04:40:50;15.7;;;14.2;;
77748;SDS011;66938;52.084;5.228;2023-05-13T04:42:27;14.8;;;13.4;;
77748;SDS011;66938;52.084;5.228;2023-05-13T04:44:03;15.4;;;13.9;;
77748;SDS011;66938;52.084;5.228;2023-05-13T04:47:15;15.2;;;13.7;;
77748;SDS011;66938;52.084;5.228;2023-05-13T04:48:51;16.8;;;15.0;;
77748;SDS011;66938;52.084;5.228;2023-05-13T04:50:27;15.5;;;14.1;;
77748;SDS011;66938;52.084;5.228;2023-05-13T04:53:41;14.8;;;13.4;;
77748;SDS011;66938;52.084;5.228;2023-05-13T04:55:17;15.2;;;13.7;;
77748;SDS011;66938;52.084;5.228;2023-05-13T04:56:53;14.5;;;13.1;;
77748;SDS011;66938;52.084;5.228;2023-05-13T05:00:06;14.4;;;13.2;;
77748;SDS011;66938;52.084;5.228;2023-05-13T05:01:42;14.7;;;13.3;;
77748;SDS011;66938;52.084;5.228;2023-05-13T05:03:18;14.8;;;13.4;;
77748;SDS011;66938;52.084;5.228;2023-05-13T05:04:55;14.9;;;13.5;;
77748;SDS011;66938;52.084;5.228;2023-05-13T05:08:07;14.3;;;13.0;;
77748;SDS011;66938;52.084;5.228;2023-05-13T05:09:43;14.3;;;13.0;;
77748;SDS011;66938;52.084;5.228;2023-05-13T05:11:19;15.1;;;13.6;;
77748;SDS011;66938;52.084;5.228;2023-05-13T05:14:31;15.0;;;13.5;;
77748;SDS011;66938;52.084;5.228;2023-05-13T05:16:08;14.3;;;13.0;;
77748;SDS011;66938;52.084;5.228;2023-05-13T05:17:44;14.8;;;13.5;;
77748;SDS011;66938;52.084;5.228;2023-05-13T05:20:56;14.7;;;13.3;;
77748;SDS011;66938;52.084;5.228;2023-05-13T05:22:32;14.8;;;13.3;;
77748;SDS011;66938;52.084;5.228;2023-05-13T05:24:08;15.1;;;13.7;;
77748;SDS011;66938;52.084;5.228;2023-05-13T05:25:44;14.9;;;13.5;;
77748;SDS011;66938;52.084;5.228;2023-05-13T05:28:57;14.2;;;12.9;;
77748;SDS011;66938;52.084;5.228;2023-05-13T05:30:33;14.7;;;13.4;;
77748;SDS011;66938;52.084;5.228;2023-05-13T05:32:09;15.1;;;13.7;;
77748;SDS011;66938;52.084;5.228;2023-05-13T05:35:21;14.7;;;13.4;;
77748;SDS011;66938;52.084;5.228;2023-05-13T05:36:58;14.3;;;13.1;;
77748;SDS011;66938;52.084;5.228;2023-05-13T05:38:34;13.9;;;12.6;;
77748;SDS011;66938;52.084;5.228;2023-05-13T05:41:47;13.9;;;12.6;;
77748;SDS011;66938;52.084;5.228;2023-05-13T05:43:23;14.2;;;12.9;;
77748;SDS011;66938;52.084;5.228;2023-05-13T05:44:59;15.2;;;13.7;;
77748;SDS011;66938;52.084;5.228;2023-05-13T05:48:12;13.9;;;12.6;;
77748;SDS011;66938;52.084;5.228;2023-05-13T05:49:48;13.8;;;12.6;;
77748;SDS011;66938;52.084;5.228;2023-05-13T05:51:24;13.4;;;12.3;;
77748;SDS011;66938;52.084;5.228;2023-05-13T05:53:00;13.7;;;12.5;;
77748;SDS011;66938;52.084;5.228;2023-05-13T05:56:13;14.0;;;12.8;;
77748;SDS011;66938;52.084;5.228;2023-05-13T05:57:50;14.2;;;12.9;;
77748;SDS011;66938;52.084;5.228;2023-05-13T05:59:26;13.8;;;12.6;;
77748;SDS011;66938;52.084;5.228;2023-05-13T06:02:38;14.4;;;13.0;;
77748;SDS011;66938;52.084;5.228;2023-05-13T06:04:14;13.4;;;12.2;;
77748;SDS011;66938;52.084;5.228;2023-05-13T06:05:50;14.3;;;13.0;;
77748;SDS011;66938;52.084;5.228;2023-05-13T06:09:03;14.2;;;12.9;;
77748;SDS011;66938;52.084;5.228;2023-05-13T06:10:39;14.3;;;13.0;;
77748;SDS011;66938;52.084;5.228;2023-05-13T06:12:15;14.0;;;12.6;;
77748;SDS011;66938;52.084;5.228;2023-05-13T06:13:52;14.2;;;13.0;;
77748;SDS011;66938;52.084;5.228;2023-05-13T06:17:04;13.8;;;12.6;;
77748;SDS011;66938;52.084;5.228;2023-05-13T06:18:40;14.6;;;13.3;;
77748;SDS011;66938;52.084;5.228;2023-05-13T06:20:17;13.8;;;12.6;;
77748;SDS011;66938;52.084;5.228;2023-05-13T06:23:29;13.9;;;12.6;;
77748;SDS011;66938;52.084;5.228;2023-05-13T06:25:05;14.8;;;13.4;;
77748;SDS011;66938;52.084;5.228;2023-05-13T06:26:41;13.8;;;12.5;;
77748;SDS011;66938;52.084;5.228;2023-05-13T06:29:54;13.1;;;11.9;;
77748;SDS011;66938;52.084;5.228;2023-05-13T06:31:30;13.2;;;12.0;;
77748;SDS011;66938;52.084;5.228;2023-05-13T06:33:06;13.7;;;12.3;;
77748;SDS011;66938;52.084;5.228;2023-05-13T06:36:18;12.8;;;11.6;;
77748;SDS011;66938;52.084;5.228;2023-05-13T06:37:54;12.8;;;11.5;;
77748;SDS011;66938;52.084;5.228;2023-05-13T06:39:31;12.6;;;11.4;;
77748;SDS011;66938;52.084;5.228;2023-05-13T06:41:07;13.3;;;11.9;;
77748;SDS011;66938;52.084;5.228;2023-05-13T06:44:19;12.9;;;11.7;;
77748;SDS011;66938;52.084;5.228;2023-05-13T06:45:55;12.7;;;11.4;;
77748;SDS011;66938;52.084;5.228;2023-05-13T06:47:31;12.6;;;10.9;;
77748;SDS011;66938;52.084;5.228;2023-05-13T06:50:44;12.2;;;11.0;;
77748;SDS011;66938;52.084;5.228;2023-05-13T06:52:20;13.0;;;11.7;;
77748;SDS011;66938;52.084;5.228;2023-05-13T06:53:57;11.9;;;10.8;;
77748;SDS011;66938;52.084;5.228;2023-05-13T06:57:09;12.9;;;11.6;;
77748;SDS011;66938;52.084;5.228;2023-05-13T06:58:45;12.3;;;11.1;;
77748;SDS011;66938;52.084;5.228;2023-05-13T07:00:22;11.8;;;10.7;;
77748;SDS011;66938;52.084;5.228;2023-05-13T07:01:58;13.0;;;11.7;;
77748;SDS011;66938;52.084;5.228;2023-05-13T07:05:10;12.4;;;11.2;;
77748;SDS011;66938;52.084;5.228;2023-05-13T07:06:47;12.6;;;11.4;;
77748;SDS011;66938;52.084;5.228;2023-05-13T07:08:23;12.9;;;11.6;;
77748;SDS011;66938;52.084;5.228;2023-05-13T07:11:36;12.0;;;10.8;;
77748;SDS011;66938;52.084;5.228;2023-05-13T07:13:12;11.8;;;10.5;;
77748;SDS011;66938;52.084;5.228;2023-05-13T07:14:48;12.2;;;11.2;;
77748;SDS011;66938;52.084;5.228;2023-05-13T07:18:00;11.6;;;10.5;;
77748;SDS011;66938;52.084;5.228;2023-05-13T07:19:37;11.9;;;10.7;;
77748;SDS011;66938;52.084;5.228;2023-05-13T07:21:13;11.5;;;10.3;;
77748;SDS011;66938;52.084;5.228;2023-05-13T07:24:26;11.9;;;10.7;;
77748;SDS011;66938;52.084;5.228;2023-05-13T07:26:02;11.5;;;10.4;;
77748;SDS011;66938;52.084;5.228;2023-05-13T07:27:39;11.4;;;10.3;;
77748;SDS011;66938;52.084;5.228;2023-05-13T07:29:15;11.0;;;10.0;;
77748;SDS011;66938;52.084;5.228;2023-05-13T07:32:28;11.7;;;10.5;;
77748;SDS011;66938;52.084;5.228;2023-05-13T07:34:04;10.8;;;9.71;;
77748;SDS011;66938;52.084;5.228;2023-05-13T07:35:40;10.5;;;9.6;;
77748;SDS011;66938;52.084;5.228;2023-05-13T07:38:53;11.2;;;10.1;;
77748;SDS011;66938;52.084;5.228;2023-05-13T07:40:29;10.21;;;9.1;;
77748;SDS011;66938;52.084;5.228;2023-05-13T07:42:05;10.4;;;8.71;;
77748;SDS011;66938;52.084;5.228;2023-05-13T07:45:17;10.4;;;9.4;;
77748;SDS011;66938;52.084;5.228;2023-05-13T07:46:53;10.1;;;9.1;;
77748;SDS011;66938;52.084;5.228;2023-05-13T07:48:29;10.21;;;9.21;;
77748;SDS011;66938;52.084;5.228;2023-05-13T07:50:06;9.9;;;8.9;;
77748;SDS011;66938;52.084;5.228;2023-05-13T07:53:19;9.5;;;8.6;;
77748;SDS011;66938;52.084;5.228;2023-05-13T07:54:55;11.0;;;9.4;;
77748;SDS011;66938;52.084;5.228;2023-05-13T07:56:31;10.21;;;9.1;;
77748;SDS011;66938;52.084;5.228;2023-05-13T07:59:44;10.3;;;9.31;;
77748;SDS011;66938;52.084;5.228;2023-05-13T08:01:20;10.1;;;8.6;;
77748;SDS011;66938;52.084;5.228;2023-05-13T08:02:56;9.21;;;8.31;;
77748;SDS011;66938;52.084;5.228;2023-05-13T08:06:08;9.71;;;8.31;;
77748;SDS011;66938;52.084;5.228;2023-05-13T08:07:44;8.71;;;7.8;;
77748;SDS011;66938;52.084;5.228;2023-05-13T08:09:21;9.1;;;7.9;;
77748;SDS011;66938;52.084;5.228;2023-05-13T08:12:33;9.0;;;7.9;;
77748;SDS011;66938;52.084;5.228;2023-05-13T08:14:09;9.81;;;8.2;;
77748;SDS011;66938;52.084;5.228;2023-05-13T08:15:45;9.31;;;8.1;;
77748;SDS011;66938;52.084;5.228;2023-05-13T08:17:21;8.6;;;7.7;;
77748;SDS011;66938;52.084;5.228;2023-05-13T08:20:34;8.81;;;7.5;;
77748;SDS011;66938;52.084;5.228;2023-05-13T08:22:10;8.2;;;7.4;;
77748;SDS011;66938;52.084;5.228;2023-05-13T08:23:48;8.9;;;8.0;;
77748;SDS011;66938;52.084;5.228;2023-05-13T08:27:01;8.5;;;7.6;;
77748;SDS011;66938;52.084;5.228;2023-05-13T08:28:37;8.71;;;7.6;;
77748;SDS011;66938;52.084;5.228;2023-05-13T08:30:14;9.0;;;8.0;;
77748;SDS011;66938;52.084;5.228;2023-05-13T08:33:27;8.5;;;7.6;;
77748;SDS011;66938;52.084;5.228;2023-05-13T08:35:04;8.5;;;7.6;;
77748;SDS011;66938;52.084;5.228;2023-05-13T08:36:41;8.9;;;7.8;;
77748;SDS011;66938;52.084;5.228;2023-05-13T08:38:17;8.4;;;7.5;;
77748;SDS011;66938;52.084;5.228;2023-05-13T08:41:30;9.1;;;7.7;;
77748;SDS011;66938;52.084;5.228;2023-05-13T08:43:08;9.0;;;7.4;;
77748;SDS011;66938;52.084;5.228;2023-05-13T08:44:49;8.5;;;7.6;;
77748;SDS011;66938;52.084;5.228;2023-05-13T08:48:06;9.6;;;8.1;;
77748;SDS011;66938;52.084;5.228;2023-05-13T08:49:46;9.4;;;7.7;;
77748;SDS011;66938;52.084;5.228;2023-05-13T08:51:23;8.5;;;7.6;;
77748;SDS011;66938;52.084;5.228;2023-05-13T08:52:59;9.9;;;7.5;;
77748;SDS011;66938;52.084;5.228;2023-05-13T08:56:12;7.9;;;7.1;;
77748;SDS011;66938;52.084;5.228;2023-05-13T08:57:48;8.2;;;7.4;;
77748;SDS011;66938;52.084;5.228;2023-05-13T08:59:24;9.4;;;7.1;;
77748;SDS011;66938;52.084;5.228;2023-05-13T09:02:38;10.4;;;8.31;;
77748;SDS011;66938;52.084;5.228;2023-05-13T09:04:14;8.9;;;7.4;;
77748;SDS011;66938;52.084;5.228;2023-05-13T09:05:51;9.21;;;7.6;;
77748;SDS011;66938;52.084;5.228;2023-05-13T09:09:04;8.1;;;7.3;;
77748;SDS011;66938;52.084;5.228;2023-05-13T09:10:41;10.8;;;7.7;;
77748;SDS011;66938;52.084;5.228;2023-05-13T09:12:49;9.21;;;7.5;;
77748;SDS011;66938;52.084;5.228;2023-05-13T09:14:28;8.31;;;7.3;;
77748;SDS011;66938;52.084;5.228;2023-05-13T09:16:05;8.2;;;7.3;;
77748;SDS011;66938;52.084;5.228;2023-05-13T09:19:18;10.21;;;7.2;;
77748;SDS011;66938;52.084;5.228;2023-05-13T09:20:55;8.2;;;7.3;;
77748;SDS011;66938;52.084;5.228;2023-05-13T09:22:31;11.0;;;7.8;;
77748;SDS011;66938;52.084;5.228;2023-05-13T09:25:45;8.71;;;7.3;;
77748;SDS011;66938;52.084;5.228;2023-05-13T09:27:23;7.8;;;7.0;;
77748;SDS011;66938;52.084;5.228;2023-05-13T09:29:13;9.5;;;7.7;;
77748;SDS011;66938;52.084;5.228;2023-05-13T09:30:53;7.6;;;6.6;;
77748;SDS011;66938;52.084;5.228;2023-05-13T09:34:06;8.6;;;7.3;;
77748;SDS011;66938;52.084;5.228;2023-05-13T09:35:43;9.31;;;7.5;;
77748;SDS011;66938;52.084;5.228;2023-05-13T09:37:25;8.1;;;7.3;;
77748;SDS011;66938;52.084;5.228;2023-05-13T09:39:01;8.1;;;7.1;;
77748;SDS011;66938;52.084;5.228;2023-05-13T09:42:15;9.5;;;7.6;;
77748;SDS011;66938;52.084;5.228;2023-05-13T09:43:52;8.4;;;7.5;;
77748;SDS011;66938;52.084;5.228;2023-05-13T09:45:28;8.4;;;7.5;;
77748;SDS011;66938;52.084;5.228;2023-05-13T09:48:41;11.6;;;7.3;;
77748;SDS011;66938;52.084;5.228;2023-05-13T09:50:18;9.4;;;7.7;;
77748;SDS011;66938;52.084;5.228;2023-05-13T09:51:54;8.1;;;7.1;;
77748;SDS011;66938;52.084;5.228;2023-05-13T09:53:31;8.9;;;7.2;;
77748;SDS011;66938;52.084;5.228;2023-05-13T09:56:44;8.5;;;7.1;;
77748;SDS011;66938;52.084;5.228;2023-05-13T09:58:20;9.31;;;7.1;;
77748;SDS011;66938;52.084;5.228;2023-05-13T09:59:57;10.0;;;7.4;;
77748;SDS011;66938;52.084;5.228;2023-05-13T10:03:10;8.9;;;6.6;;
77748;SDS011;66938;52.084;5.228;2023-05-13T10:04:46;10.4;;;7.4;;
77748;SDS011;66938;52.084;5.228;2023-05-13T10:06:23;9.1;;;6.6;;
77748;SDS011;66938;52.084;5.228;2023-05-13T10:09:39;8.4;;;7.4;;
77748;SDS011;66938;52.084;5.228;2023-05-13T10:11:18;9.1;;;7.8;;
77748;SDS011;66938;52.084;5.228;2023-05-13T10:12:55;9.0;;;7.1;;
77748;SDS011;66938;52.084;5.228;2023-05-13T10:14:36;10.7;;;7.8;;
77748;SDS011;66938;52.084;5.228;2023-05-13T10:17:50;8.2;;;7.4;;
77748;SDS011;66938;52.084;5.228;2023-05-13T10:19:27;8.0;;;7.2;;
77748;SDS011;66938;52.084;5.228;2023-05-13T10:21:03;8.1;;;7.2;;
77748;SDS011;66938;52.084;5.228;2023-05-13T10:24:18;9.81;;;7.1;;
77748;SDS011;66938;52.084;5.228;2023-05-13T10:25:54;9.4;;;7.5;;
77748;SDS011;66938;52.084;5.228;2023-05-13T10:27:34;8.31;;;7.4;;
77748;SDS011;66938;52.084;5.228;2023-05-13T10:29:10;8.6;;;6.8;;
77748;SDS011;66938;52.084;5.228;2023-05-13T10:32:25;9.0;;;6.7;;
77748;SDS011;66938;52.084;5.228;2023-05-13T10:34:02;8.0;;;6.6;;
77748;SDS011;66938;52.084;5.228;2023-05-13T10:35:39;8.6;;;7.0;;
77748;SDS011;66938;52.084;5.228;2023-05-13T10:39:52;7.5;;;6.7;;
77748;SDS011;66938;52.084;5.228;2023-05-13T10:42:46;8.1;;;6.5;;
77748;SDS011;66938;52.084;5.228;2023-05-13T10:44:30;8.2;;;6.5;;
77748;SDS011;66938;52.084;5.228;2023-05-13T10:46:10;9.5;;;7.5;;
77748;SDS011;66938;52.084;5.228;2023-05-13T10:49:31;8.6;;;6.8;;
77748;SDS011;66938;52.084;5.228;2023-05-13T10:51:08;8.71;;;7.0;;
77748;SDS011;66938;52.084;5.228;2023-05-13T10:52:49;7.9;;;7.1;;
77748;SDS011;66938;52.084;5.228;2023-05-13T10:54:29;8.31;;;6.3;;
77748;SDS011;66938;52.084;5.228;2023-05-13T10:58:06;7.9;;;6.2;;
77748;SDS011;66938;52.084;5.228;2023-05-13T11:00:07;8.31;;;6.3;;
77748;SDS011;66938;52.084;5.228;2023-05-13T11:01:48;6.7;;;6.0;;
77748;SDS011;66938;52.084;5.228;2023-05-13T11:03:26;7.8;;;6.1;;
77748;SDS011;66938;52.084;5.228;2023-05-13T11:05:03;8.2;;;6.2;;
77748;SDS011;66938;52.084;5.228;2023-05-13T11:08:51;7.0;;;6.3;;
77748;SDS011;66938;52.084;5.228;2023-05-13T11:10:28;7.3;;;6.6;;
77748;SDS011;66938;52.084;5.228;2023-05-13T11:12:05;8.5;;;6.8;;
77748;SDS011;66938;52.084;5.228;2023-05-13T11:13:41;8.31;;;6.2;;
77748;SDS011;66938;52.084;5.228;2023-05-13T11:15:20;9.71;;;6.3;;
77748;SDS011;66938;52.084;5.228;2023-05-13T11:18:46;9.71;;;6.3;;
77748;SDS011;66938;52.084;5.228;2023-05-13T11:20:23;9.0;;;5.7;;
77748;SDS011;66938;52.084;5.228;2023-05-13T11:22:03;6.9;;;5.2;;
77748;SDS011;66938;52.084;5.228;2023-05-13T11:23:51;7.5;;;5.6;;
77748;SDS011;66938;52.084;5.228;2023-05-13T11:27:14;7.1;;;6.4;;
77748;SDS011;66938;52.084;5.228;2023-05-13T11:28:52;7.4;;;5.9;;
77748;SDS011;66938;52.084;5.228;2023-05-13T11:30:30;8.2;;;6.3;;
77748;SDS011;66938;52.084;5.228;2023-05-13T11:32:06;10.7;;;6.6;;
77748;SDS011;66938;52.084;5.228;2023-05-13T11:35:41;8.6;;;7.3;;
77748;SDS011;66938;52.084;5.228;2023-05-13T11:37:17;9.6;;;7.2;;
77748;SDS011;66938;52.084;5.228;2023-05-13T11:38:54;9.0;;;6.6;;
77748;SDS011;66938;52.084;5.228;2023-05-13T11:40:31;7.1;;;6.4;;
77748;SDS011;66938;52.084;5.228;2023-05-13T11:43:45;8.4;;;6.3;;
77748;SDS011;66938;52.084;5.228;2023-05-13T11:45:22;7.9;;;6.2;;
77748;SDS011;66938;52.084;5.228;2023-05-13T11:47:00;9.71;;;6.2;;
77748;SDS011;66938;52.084;5.228;2023-05-13T11:48:38;10.1;;;6.0;;
77748;SDS011;66938;52.084;5.228;2023-05-13T11:51:54;8.2;;;6.2;;
77748;SDS011;66938;52.084;5.228;2023-05-13T11:53:30;7.3;;;5.7;;
77748;SDS011;66938;52.084;5.228;2023-05-13T11:55:07;9.5;;;5.5;;
77748;SDS011;66938;52.084;5.228;2023-05-13T11:58:19;7.2;;;5.0;;
77748;SDS011;66938;52.084;5.228;2023-05-13T11:59:56;6.0;;;4.7;;
77748;SDS011;66938;52.084;5.228;2023-05-13T12:01:35;5.5;;;4.8;;
77748;SDS011;66938;52.084;5.228;2023-05-13T12:04:48;6.5;;;5.2;;
77748;SDS011;66938;52.084;5.228;2023-05-13T12:06:24;7.5;;;5.3;;
77748;SDS011;66938;52.084;5.228;2023-05-13T12:08:01;7.7;;;5.9;;
77748;SDS011;66938;52.084;5.228;2023-05-13T12:09:37;8.31;;;5.3;;
77748;SDS011;66938;52.084;5.228;2023-05-13T12:12:49;7.2;;;5.4;;
77748;SDS011;66938;52.084;5.228;2023-05-13T12:14:25;5.9;;;4.91;;
77748;SDS011;66938;52.084;5.228;2023-05-13T12:16:02;9.0;;;5.2;;
77748;SDS011;66938;52.084;5.228;2023-05-13T12:19:15;7.2;;;5.3;;
77748;SDS011;66938;52.084;5.228;2023-05-13T12:20:51;7.7;;;5.4;;
77748;SDS011;66938;52.084;5.228;2023-05-13T12:22:27;8.6;;;5.5;;
77748;SDS011;66938;52.084;5.228;2023-05-13T12:27:27;7.4;;;4.91;;
77748;SDS011;66938;52.084;5.228;2023-05-13T12:29:05;7.2;;;5.11;;
77748;SDS011;66938;52.084;5.228;2023-05-13T12:30:41;6.8;;;5.0;;
77748;SDS011;66938;52.084;5.228;2023-05-13T12:34:00;8.6;;;5.6;;
77748;SDS011;66938;52.084;5.228;2023-05-13T12:35:36;8.4;;;4.91;;
77748;SDS011;66938;52.084;5.228;2023-05-13T12:37:13;7.4;;;5.0;;
77748;SDS011;66938;52.084;5.228;2023-05-13T12:38:52;6.9;;;4.8;;
77748;SDS011;66938;52.084;5.228;2023-05-13T12:42:14;6.3;;;4.3;;
77748;SDS011;66938;52.084;5.228;2023-05-13T12:43:54;6.4;;;4.8;;
77748;SDS011;66938;52.084;5.228;2023-05-13T12:45:32;7.8;;;4.7;;
77748;SDS011;66938;52.084;5.228;2023-05-13T12:47:09;7.1;;;4.3;;
77748;SDS011;66938;52.084;5.228;2023-05-13T12:50:22;7.3;;;4.5;;
77748;SDS011;66938;52.084;5.228;2023-05-13T12:52:00;7.1;;;4.1;;
77748;SDS011;66938;52.084;5.228;2023-05-13T12:53:36;6.5;;;4.2;;